<?xml version="1.0" encoding="UTF-8" standalone="no" ?>
<gpx xmlns="http://www.topografix.com/GPX/1/1" xmlns:xsi="http://www.w3.org/2001/XMLSchema-instance" xsi:schemaLocation="http://www.topografix.com/GPX/1/1 http://www.topografix.com/GPX/1/1/gpx.xsd" version="1.1" creator="VisuGPX - https://www.visugpx.com">
  <metadata>
    <name>Rando Cascade de Runes</name>
    <desc><![CDATA[Facile, belle Cascade ! ]]></desc>
  </metadata>
  <trk>
    <name><![CDATA[Rando Cascade de Runes_1]]></name>
    <trkseg>
      <trkpt lat="44.38197" lon="3.67669">
        <ele>997.2</ele>
        <time>2022-08-09T10:05:18Z</time>
      </trkpt>
      <trkpt lat="44.38192" lon="3.6767">
        <ele>996.8</ele>
        <time>2022-08-09T10:05:32Z</time>
      </trkpt>
      <trkpt lat="44.38185" lon="3.67673">
        <ele>996</ele>
        <time>2022-08-09T10:05:41Z</time>
      </trkpt>
      <trkpt lat="44.38183" lon="3.67675">
        <ele>996</ele>
        <time>2022-08-09T10:05:44Z</time>
      </trkpt>
      <trkpt lat="44.38174" lon="3.67684">
        <ele>996.6</ele>
        <time>2022-08-09T10:05:54Z</time>
      </trkpt>
      <trkpt lat="44.38173" lon="3.67684">
        <ele>996.8</ele>
        <time>2022-08-09T10:05:55Z</time>
      </trkpt>
      <trkpt lat="44.3816" lon="3.67695">
        <ele>996</ele>
        <time>2022-08-09T10:06:08Z</time>
      </trkpt>
      <trkpt lat="44.38151" lon="3.67704">
        <ele>996.6</ele>
        <time>2022-08-09T10:06:20Z</time>
      </trkpt>
      <trkpt lat="44.3815" lon="3.67705">
        <ele>996.6</ele>
        <time>2022-08-09T10:06:21Z</time>
      </trkpt>
      <trkpt lat="44.38139" lon="3.67714">
        <ele>997.2</ele>
        <time>2022-08-09T10:06:33Z</time>
      </trkpt>
      <trkpt lat="44.38127" lon="3.67722">
        <ele>997</ele>
        <time>2022-08-09T10:06:46Z</time>
      </trkpt>
      <trkpt lat="44.38126" lon="3.67723">
        <ele>997</ele>
        <time>2022-08-09T10:06:47Z</time>
      </trkpt>
      <trkpt lat="44.38114" lon="3.67733">
        <ele>996.6</ele>
        <time>2022-08-09T10:06:59Z</time>
      </trkpt>
      <trkpt lat="44.38112" lon="3.67733">
        <ele>997</ele>
        <time>2022-08-09T10:07:04Z</time>
      </trkpt>
      <trkpt lat="44.3811" lon="3.67732">
        <ele>997</ele>
        <time>2022-08-09T10:07:09Z</time>
      </trkpt>
      <trkpt lat="44.38104" lon="3.67728">
        <ele>998</ele>
        <time>2022-08-09T10:07:19Z</time>
      </trkpt>
      <trkpt lat="44.38102" lon="3.67727">
        <ele>997.8</ele>
        <time>2022-08-09T10:07:21Z</time>
      </trkpt>
      <trkpt lat="44.38095" lon="3.67723">
        <ele>998</ele>
        <time>2022-08-09T10:07:28Z</time>
      </trkpt>
      <trkpt lat="44.38093" lon="3.67722">
        <ele>998.2</ele>
        <time>2022-08-09T10:07:30Z</time>
      </trkpt>
      <trkpt lat="44.38088" lon="3.67719">
        <ele>998.4</ele>
        <time>2022-08-09T10:07:34Z</time>
      </trkpt>
      <trkpt lat="44.38083" lon="3.67711">
        <ele>999</ele>
        <time>2022-08-09T10:07:44Z</time>
      </trkpt>
      <trkpt lat="44.38084" lon="3.67708">
        <ele>999</ele>
        <time>2022-08-09T10:07:46Z</time>
      </trkpt>
      <trkpt lat="44.38085" lon="3.67706">
        <ele>999.2</ele>
        <time>2022-08-09T10:07:48Z</time>
      </trkpt>
      <trkpt lat="44.38086" lon="3.67704">
        <ele>999.2</ele>
        <time>2022-08-09T10:07:52Z</time>
      </trkpt>
      <trkpt lat="44.38087" lon="3.67702">
        <ele>999</ele>
        <time>2022-08-09T10:07:57Z</time>
      </trkpt>
      <trkpt lat="44.38093" lon="3.67696">
        <ele>998.2</ele>
        <time>2022-08-09T10:08:06Z</time>
      </trkpt>
      <trkpt lat="44.38094" lon="3.67692">
        <ele>997.4</ele>
        <time>2022-08-09T10:08:10Z</time>
      </trkpt>
      <trkpt lat="44.38095" lon="3.67691">
        <ele>997.2</ele>
        <time>2022-08-09T10:08:12Z</time>
      </trkpt>
      <trkpt lat="44.38101" lon="3.67684">
        <ele>996.4</ele>
        <time>2022-08-09T10:08:20Z</time>
      </trkpt>
      <trkpt lat="44.38101" lon="3.67681">
        <ele>996.4</ele>
        <time>2022-08-09T10:08:22Z</time>
      </trkpt>
      <trkpt lat="44.38104" lon="3.67678">
        <ele>996</ele>
        <time>2022-08-09T10:08:25Z</time>
      </trkpt>
      <trkpt lat="44.3811" lon="3.67666">
        <ele>995</ele>
        <time>2022-08-09T10:08:36Z</time>
      </trkpt>
      <trkpt lat="44.3811" lon="3.67665">
        <ele>994.8</ele>
        <time>2022-08-09T10:08:37Z</time>
      </trkpt>
      <trkpt lat="44.38111" lon="3.67657">
        <ele>993.8</ele>
        <time>2022-08-09T10:08:44Z</time>
      </trkpt>
      <trkpt lat="44.38111" lon="3.6765">
        <ele>993</ele>
        <time>2022-08-09T10:08:50Z</time>
      </trkpt>
      <trkpt lat="44.3811" lon="3.67647">
        <ele>992.6</ele>
        <time>2022-08-09T10:08:54Z</time>
      </trkpt>
      <trkpt lat="44.38108" lon="3.67642">
        <ele>991.6</ele>
        <time>2022-08-09T10:08:59Z</time>
      </trkpt>
      <trkpt lat="44.38107" lon="3.67634">
        <ele>991.6</ele>
        <time>2022-08-09T10:09:05Z</time>
      </trkpt>
      <trkpt lat="44.38109" lon="3.67617">
        <ele>990.6</ele>
        <time>2022-08-09T10:09:18Z</time>
      </trkpt>
      <trkpt lat="44.38109" lon="3.67613">
        <ele>990.6</ele>
        <time>2022-08-09T10:09:20Z</time>
      </trkpt>
      <trkpt lat="44.38109" lon="3.67611">
        <ele>990.8</ele>
        <time>2022-08-09T10:09:21Z</time>
      </trkpt>
      <trkpt lat="44.38102" lon="3.67597">
        <ele>990.4</ele>
        <time>2022-08-09T10:09:31Z</time>
      </trkpt>
      <trkpt lat="44.38097" lon="3.67591">
        <ele>990.2</ele>
        <time>2022-08-09T10:09:36Z</time>
      </trkpt>
      <trkpt lat="44.3809" lon="3.67582">
        <ele>990.6</ele>
        <time>2022-08-09T10:09:43Z</time>
      </trkpt>
      <trkpt lat="44.38076" lon="3.67571">
        <ele>990.8</ele>
        <time>2022-08-09T10:09:58Z</time>
      </trkpt>
      <trkpt lat="44.38062" lon="3.67563">
        <ele>990.8</ele>
        <time>2022-08-09T10:10:13Z</time>
      </trkpt>
      <trkpt lat="44.3805" lon="3.67559">
        <ele>989.4</ele>
        <time>2022-08-09T10:10:26Z</time>
      </trkpt>
      <trkpt lat="44.38049" lon="3.67559">
        <ele>989.2</ele>
        <time>2022-08-09T10:10:27Z</time>
      </trkpt>
      <trkpt lat="44.38039" lon="3.67555">
        <ele>988.4</ele>
        <time>2022-08-09T10:10:40Z</time>
      </trkpt>
      <trkpt lat="44.38038" lon="3.67555">
        <ele>988.2</ele>
        <time>2022-08-09T10:10:42Z</time>
      </trkpt>
      <trkpt lat="44.38035" lon="3.67553">
        <ele>987.2</ele>
        <time>2022-08-09T10:10:46Z</time>
      </trkpt>
      <trkpt lat="44.38032" lon="3.6755">
        <ele>986.8</ele>
        <time>2022-08-09T10:10:52Z</time>
      </trkpt>
      <trkpt lat="44.38028" lon="3.67547">
        <ele>986</ele>
        <time>2022-08-09T10:10:59Z</time>
      </trkpt>
      <trkpt lat="44.38024" lon="3.67544">
        <ele>985.4</ele>
        <time>2022-08-09T10:11:07Z</time>
      </trkpt>
      <trkpt lat="44.38023" lon="3.67545">
        <ele>985</ele>
        <time>2022-08-09T10:11:09Z</time>
      </trkpt>
      <trkpt lat="44.38017" lon="3.67542">
        <ele>984</ele>
        <time>2022-08-09T10:11:18Z</time>
      </trkpt>
      <trkpt lat="44.38016" lon="3.67542">
        <ele>983.8</ele>
        <time>2022-08-09T10:11:19Z</time>
      </trkpt>
      <trkpt lat="44.38006" lon="3.67536">
        <ele>982.8</ele>
        <time>2022-08-09T10:11:32Z</time>
      </trkpt>
      <trkpt lat="44.38002" lon="3.67534">
        <ele>981.8</ele>
        <time>2022-08-09T10:11:41Z</time>
      </trkpt>
      <trkpt lat="44.38001" lon="3.67533">
        <ele>982</ele>
        <time>2022-08-09T10:11:44Z</time>
      </trkpt>
      <trkpt lat="44.37998" lon="3.67532">
        <ele>981.4</ele>
        <time>2022-08-09T10:11:58Z</time>
      </trkpt>
      <trkpt lat="44.37994" lon="3.67528">
        <ele>980.6</ele>
        <time>2022-08-09T10:12:07Z</time>
      </trkpt>
      <trkpt lat="44.37993" lon="3.67527">
        <ele>980</ele>
        <time>2022-08-09T10:12:09Z</time>
      </trkpt>
      <trkpt lat="44.3799" lon="3.67526">
        <ele>979.4</ele>
        <time>2022-08-09T10:12:12Z</time>
      </trkpt>
      <trkpt lat="44.37986" lon="3.67525">
        <ele>978.4</ele>
        <time>2022-08-09T10:12:19Z</time>
      </trkpt>
      <trkpt lat="44.37983" lon="3.67521">
        <ele>977.4</ele>
        <time>2022-08-09T10:12:26Z</time>
      </trkpt>
      <trkpt lat="44.37982" lon="3.67518">
        <ele>976.8</ele>
        <time>2022-08-09T10:12:29Z</time>
      </trkpt>
      <trkpt lat="44.3798" lon="3.67517">
        <ele>976.2</ele>
        <time>2022-08-09T10:12:33Z</time>
      </trkpt>
      <trkpt lat="44.37977" lon="3.67516">
        <ele>975.4</ele>
        <time>2022-08-09T10:12:40Z</time>
      </trkpt>
      <trkpt lat="44.37976" lon="3.67517">
        <ele>975.2</ele>
        <time>2022-08-09T10:12:53Z</time>
      </trkpt>
      <trkpt lat="44.37976" lon="3.67517">
        <ele>975.2</ele>
        <time>2022-08-09T10:12:54Z</time>
      </trkpt>
      <trkpt lat="44.37974" lon="3.67515">
        <ele>974</ele>
        <time>2022-08-09T10:13:03Z</time>
      </trkpt>
      <trkpt lat="44.37974" lon="3.67514">
        <ele>973.8</ele>
        <time>2022-08-09T10:13:04Z</time>
      </trkpt>
      <trkpt lat="44.37972" lon="3.6751">
        <ele>973</ele>
        <time>2022-08-09T10:13:09Z</time>
      </trkpt>
      <trkpt lat="44.3797" lon="3.67507">
        <ele>972</ele>
        <time>2022-08-09T10:13:15Z</time>
      </trkpt>
      <trkpt lat="44.3797" lon="3.67506">
        <ele>972</ele>
        <time>2022-08-09T10:13:16Z</time>
      </trkpt>
      <trkpt lat="44.37966" lon="3.67503">
        <ele>971.2</ele>
        <time>2022-08-09T10:13:27Z</time>
      </trkpt>
      <trkpt lat="44.37961" lon="3.67503">
        <ele>971</ele>
        <time>2022-08-09T10:13:32Z</time>
      </trkpt>
      <trkpt lat="44.37958" lon="3.67502">
        <ele>970.4</ele>
        <time>2022-08-09T10:13:36Z</time>
      </trkpt>
      <trkpt lat="44.37956" lon="3.67503">
        <ele>970.4</ele>
        <time>2022-08-09T10:13:39Z</time>
      </trkpt>
      <trkpt lat="44.37957" lon="3.67503">
        <ele>970.8</ele>
        <time>2022-08-09T10:13:52Z</time>
      </trkpt>
      <trkpt lat="44.37955" lon="3.67501">
        <ele>970</ele>
        <time>2022-08-09T10:14:03Z</time>
      </trkpt>
      <trkpt lat="44.37954" lon="3.67501">
        <ele>970</ele>
        <time>2022-08-09T10:14:04Z</time>
      </trkpt>
      <trkpt lat="44.37954" lon="3.67501">
        <ele>970.2</ele>
        <time>2022-08-09T10:14:18Z</time>
      </trkpt>
      <trkpt lat="44.37956" lon="3.67502">
        <ele>970.8</ele>
        <time>2022-08-09T10:14:38Z</time>
      </trkpt>
      <trkpt lat="44.37956" lon="3.67502">
        <ele>971.2</ele>
        <time>2022-08-09T10:14:39Z</time>
      </trkpt>
      <trkpt lat="44.37956" lon="3.67503">
        <ele>971.4</ele>
        <time>2022-08-09T10:14:49Z</time>
      </trkpt>
      <trkpt lat="44.37956" lon="3.67502">
        <ele>971.2</ele>
        <time>2022-08-09T10:15:10Z</time>
      </trkpt>
      <trkpt lat="44.37956" lon="3.67502">
        <ele>970</ele>
        <time>2022-08-09T10:15:20Z</time>
      </trkpt>
      <trkpt lat="44.37955" lon="3.675">
        <ele>970</ele>
        <time>2022-08-09T10:15:26Z</time>
      </trkpt>
      <trkpt lat="44.37953" lon="3.67499">
        <ele>969</ele>
        <time>2022-08-09T10:15:30Z</time>
      </trkpt>
      <trkpt lat="44.37953" lon="3.67497">
        <ele>968.4</ele>
        <time>2022-08-09T10:15:37Z</time>
      </trkpt>
      <trkpt lat="44.37953" lon="3.67496">
        <ele>969</ele>
        <time>2022-08-09T10:15:53Z</time>
      </trkpt>
      <trkpt lat="44.37957" lon="3.67497">
        <ele>968.6</ele>
        <time>2022-08-09T10:16:08Z</time>
      </trkpt>
      <trkpt lat="44.37957" lon="3.67501">
        <ele>969.2</ele>
        <time>2022-08-09T10:16:16Z</time>
      </trkpt>
      <trkpt lat="44.37957" lon="3.67505">
        <ele>970.4</ele>
        <time>2022-08-09T10:16:21Z</time>
      </trkpt>
      <trkpt lat="44.37954" lon="3.67506">
        <ele>970.2</ele>
        <time>2022-08-09T10:16:27Z</time>
      </trkpt>
      <trkpt lat="44.37953" lon="3.67504">
        <ele>969.4</ele>
        <time>2022-08-09T10:16:34Z</time>
      </trkpt>
      <trkpt lat="44.3795" lon="3.67506">
        <ele>968.8</ele>
        <time>2022-08-09T10:16:40Z</time>
      </trkpt>
      <trkpt lat="44.37948" lon="3.67509">
        <ele>968.2</ele>
        <time>2022-08-09T10:16:45Z</time>
      </trkpt>
      <trkpt lat="44.37945" lon="3.67513">
        <ele>967.2</ele>
        <time>2022-08-09T10:16:51Z</time>
      </trkpt>
      <trkpt lat="44.37944" lon="3.67514">
        <ele>966.6</ele>
        <time>2022-08-09T10:16:53Z</time>
      </trkpt>
      <trkpt lat="44.37942" lon="3.67516">
        <ele>966</ele>
        <time>2022-08-09T10:16:56Z</time>
      </trkpt>
      <trkpt lat="44.37939" lon="3.6752">
        <ele>964.8</ele>
        <time>2022-08-09T10:17:02Z</time>
      </trkpt>
      <trkpt lat="44.37937" lon="3.6752">
        <ele>964.2</ele>
        <time>2022-08-09T10:17:07Z</time>
      </trkpt>
      <trkpt lat="44.37934" lon="3.67521">
        <ele>963.8</ele>
        <time>2022-08-09T10:17:12Z</time>
      </trkpt>
      <trkpt lat="44.3793" lon="3.67522">
        <ele>962.6</ele>
        <time>2022-08-09T10:17:20Z</time>
      </trkpt>
      <trkpt lat="44.37926" lon="3.67524">
        <ele>961.6</ele>
        <time>2022-08-09T10:17:26Z</time>
      </trkpt>
      <trkpt lat="44.37921" lon="3.67527">
        <ele>960.4</ele>
        <time>2022-08-09T10:17:34Z</time>
      </trkpt>
      <trkpt lat="44.3792" lon="3.67529">
        <ele>959.6</ele>
        <time>2022-08-09T10:17:39Z</time>
      </trkpt>
      <trkpt lat="44.37919" lon="3.67534">
        <ele>959.4</ele>
        <time>2022-08-09T10:17:48Z</time>
      </trkpt>
      <trkpt lat="44.37917" lon="3.67533">
        <ele>959.4</ele>
        <time>2022-08-09T10:17:51Z</time>
      </trkpt>
      <trkpt lat="44.37905" lon="3.67531">
        <ele>959</ele>
        <time>2022-08-09T10:18:05Z</time>
      </trkpt>
      <trkpt lat="44.37904" lon="3.6753">
        <ele>959</ele>
        <time>2022-08-09T10:18:07Z</time>
      </trkpt>
      <trkpt lat="44.37902" lon="3.67529">
        <ele>959</ele>
        <time>2022-08-09T10:18:09Z</time>
      </trkpt>
      <trkpt lat="44.37898" lon="3.67525">
        <ele>958.6</ele>
        <time>2022-08-09T10:18:13Z</time>
      </trkpt>
      <trkpt lat="44.37897" lon="3.67525">
        <ele>958.6</ele>
        <time>2022-08-09T10:18:14Z</time>
      </trkpt>
      <trkpt lat="44.37895" lon="3.67525">
        <ele>958.4</ele>
        <time>2022-08-09T10:18:16Z</time>
      </trkpt>
      <trkpt lat="44.37893" lon="3.67524">
        <ele>958.2</ele>
        <time>2022-08-09T10:18:18Z</time>
      </trkpt>
      <trkpt lat="44.37889" lon="3.67525">
        <ele>957.8</ele>
        <time>2022-08-09T10:18:21Z</time>
      </trkpt>
      <trkpt lat="44.3788" lon="3.67525">
        <ele>957.8</ele>
        <time>2022-08-09T10:18:35Z</time>
      </trkpt>
      <trkpt lat="44.37879" lon="3.67524">
        <ele>958</ele>
        <time>2022-08-09T10:18:37Z</time>
      </trkpt>
      <trkpt lat="44.37874" lon="3.67518">
        <ele>957.4</ele>
        <time>2022-08-09T10:18:44Z</time>
      </trkpt>
      <trkpt lat="44.37873" lon="3.67517">
        <ele>957.2</ele>
        <time>2022-08-09T10:18:46Z</time>
      </trkpt>
      <trkpt lat="44.37871" lon="3.67515">
        <ele>956.8</ele>
        <time>2022-08-09T10:18:49Z</time>
      </trkpt>
      <trkpt lat="44.3787" lon="3.67515">
        <ele>956.8</ele>
        <time>2022-08-09T10:18:50Z</time>
      </trkpt>
      <trkpt lat="44.3787" lon="3.67515">
        <ele>956.8</ele>
        <time>2022-08-09T10:18:51Z</time>
      </trkpt>
      <trkpt lat="44.37868" lon="3.67512">
        <ele>956.2</ele>
        <time>2022-08-09T10:18:53Z</time>
      </trkpt>
      <trkpt lat="44.37867" lon="3.67511">
        <ele>956.2</ele>
        <time>2022-08-09T10:18:54Z</time>
      </trkpt>
      <trkpt lat="44.37864" lon="3.67508">
        <ele>956</ele>
        <time>2022-08-09T10:18:57Z</time>
      </trkpt>
      <trkpt lat="44.37861" lon="3.67507">
        <ele>955.8</ele>
        <time>2022-08-09T10:19:03Z</time>
      </trkpt>
      <trkpt lat="44.3786" lon="3.67505">
        <ele>955.6</ele>
        <time>2022-08-09T10:19:05Z</time>
      </trkpt>
      <trkpt lat="44.37859" lon="3.67504">
        <ele>955.6</ele>
        <time>2022-08-09T10:19:07Z</time>
      </trkpt>
      <trkpt lat="44.37858" lon="3.67503">
        <ele>955.4</ele>
        <time>2022-08-09T10:19:09Z</time>
      </trkpt>
      <trkpt lat="44.37856" lon="3.67502">
        <ele>955.4</ele>
        <time>2022-08-09T10:19:11Z</time>
      </trkpt>
      <trkpt lat="44.37855" lon="3.67501">
        <ele>955.4</ele>
        <time>2022-08-09T10:19:13Z</time>
      </trkpt>
      <trkpt lat="44.37853" lon="3.675">
        <ele>955.6</ele>
        <time>2022-08-09T10:19:16Z</time>
      </trkpt>
      <trkpt lat="44.37851" lon="3.67499">
        <ele>955.6</ele>
        <time>2022-08-09T10:19:18Z</time>
      </trkpt>
      <trkpt lat="44.3785" lon="3.67497">
        <ele>955.4</ele>
        <time>2022-08-09T10:19:20Z</time>
      </trkpt>
      <trkpt lat="44.37847" lon="3.67492">
        <ele>955.4</ele>
        <time>2022-08-09T10:19:23Z</time>
      </trkpt>
      <trkpt lat="44.37846" lon="3.67492">
        <ele>955.4</ele>
        <time>2022-08-09T10:19:24Z</time>
      </trkpt>
      <trkpt lat="44.37845" lon="3.67491">
        <ele>955.2</ele>
        <time>2022-08-09T10:19:26Z</time>
      </trkpt>
      <trkpt lat="44.37843" lon="3.67489">
        <ele>955</ele>
        <time>2022-08-09T10:19:29Z</time>
      </trkpt>
      <trkpt lat="44.37841" lon="3.67489">
        <ele>954.8</ele>
        <time>2022-08-09T10:19:31Z</time>
      </trkpt>
      <trkpt lat="44.37839" lon="3.67488">
        <ele>954.4</ele>
        <time>2022-08-09T10:19:35Z</time>
      </trkpt>
      <trkpt lat="44.37837" lon="3.67487">
        <ele>954.4</ele>
        <time>2022-08-09T10:19:37Z</time>
      </trkpt>
      <trkpt lat="44.37835" lon="3.67486">
        <ele>954.4</ele>
        <time>2022-08-09T10:19:40Z</time>
      </trkpt>
      <trkpt lat="44.37834" lon="3.67486">
        <ele>954.4</ele>
        <time>2022-08-09T10:19:41Z</time>
      </trkpt>
      <trkpt lat="44.37833" lon="3.67486">
        <ele>954.4</ele>
        <time>2022-08-09T10:19:42Z</time>
      </trkpt>
      <trkpt lat="44.3783" lon="3.67484">
        <ele>954.4</ele>
        <time>2022-08-09T10:19:46Z</time>
      </trkpt>
      <trkpt lat="44.37826" lon="3.6748">
        <ele>954.2</ele>
        <time>2022-08-09T10:19:51Z</time>
      </trkpt>
      <trkpt lat="44.37824" lon="3.67476">
        <ele>953.6</ele>
        <time>2022-08-09T10:19:54Z</time>
      </trkpt>
      <trkpt lat="44.37824" lon="3.67474">
        <ele>953.6</ele>
        <time>2022-08-09T10:19:57Z</time>
      </trkpt>
      <trkpt lat="44.37823" lon="3.67471">
        <ele>953.4</ele>
        <time>2022-08-09T10:20:01Z</time>
      </trkpt>
      <trkpt lat="44.37823" lon="3.6747">
        <ele>953.4</ele>
        <time>2022-08-09T10:20:03Z</time>
      </trkpt>
      <trkpt lat="44.37824" lon="3.6747">
        <ele>953.2</ele>
        <time>2022-08-09T10:20:04Z</time>
      </trkpt>
      <trkpt lat="44.37824" lon="3.67469">
        <ele>953</ele>
        <time>2022-08-09T10:20:05Z</time>
      </trkpt>
      <trkpt lat="44.37824" lon="3.67466">
        <ele>952.6</ele>
        <time>2022-08-09T10:20:10Z</time>
      </trkpt>
      <trkpt lat="44.37818" lon="3.6745">
        <ele>952.4</ele>
        <time>2022-08-09T10:20:22Z</time>
      </trkpt>
      <trkpt lat="44.37817" lon="3.67449">
        <ele>952.4</ele>
        <time>2022-08-09T10:20:23Z</time>
      </trkpt>
      <trkpt lat="44.37813" lon="3.67444">
        <ele>952.6</ele>
        <time>2022-08-09T10:20:27Z</time>
      </trkpt>
      <trkpt lat="44.37804" lon="3.67434">
        <ele>952.4</ele>
        <time>2022-08-09T10:20:36Z</time>
      </trkpt>
      <trkpt lat="44.378" lon="3.67432">
        <ele>952</ele>
        <time>2022-08-09T10:20:44Z</time>
      </trkpt>
      <trkpt lat="44.37799" lon="3.67432">
        <ele>951.8</ele>
        <time>2022-08-09T10:20:48Z</time>
      </trkpt>
      <trkpt lat="44.37793" lon="3.67434">
        <ele>951.8</ele>
        <time>2022-08-09T10:20:59Z</time>
      </trkpt>
      <trkpt lat="44.37794" lon="3.67432">
        <ele>951.6</ele>
        <time>2022-08-09T10:21:10Z</time>
      </trkpt>
      <trkpt lat="44.37795" lon="3.67431">
        <ele>951</ele>
        <time>2022-08-09T10:21:14Z</time>
      </trkpt>
      <trkpt lat="44.37797" lon="3.67428">
        <ele>950.4</ele>
        <time>2022-08-09T10:21:20Z</time>
      </trkpt>
      <trkpt lat="44.37798" lon="3.67427">
        <ele>949.8</ele>
        <time>2022-08-09T10:21:23Z</time>
      </trkpt>
      <trkpt lat="44.37803" lon="3.67426">
        <ele>948.8</ele>
        <time>2022-08-09T10:21:31Z</time>
      </trkpt>
      <trkpt lat="44.37805" lon="3.67425">
        <ele>948</ele>
        <time>2022-08-09T10:21:36Z</time>
      </trkpt>
      <trkpt lat="44.37806" lon="3.67425">
        <ele>947.6</ele>
        <time>2022-08-09T10:21:38Z</time>
      </trkpt>
      <trkpt lat="44.37807" lon="3.67424">
        <ele>946.2</ele>
        <time>2022-08-09T10:21:41Z</time>
      </trkpt>
      <trkpt lat="44.37808" lon="3.67421">
        <ele>946.8</ele>
        <time>2022-08-09T10:21:51Z</time>
      </trkpt>
      <trkpt lat="44.37808" lon="3.67417">
        <ele>946</ele>
        <time>2022-08-09T10:22:03Z</time>
      </trkpt>
      <trkpt lat="44.37812" lon="3.67417">
        <ele>945</ele>
        <time>2022-08-09T10:22:09Z</time>
      </trkpt>
      <trkpt lat="44.37815" lon="3.67417">
        <ele>944.4</ele>
        <time>2022-08-09T10:22:13Z</time>
      </trkpt>
      <trkpt lat="44.37818" lon="3.67418">
        <ele>944</ele>
        <time>2022-08-09T10:22:17Z</time>
      </trkpt>
      <trkpt lat="44.37821" lon="3.67418">
        <ele>943</ele>
        <time>2022-08-09T10:22:25Z</time>
      </trkpt>
      <trkpt lat="44.37822" lon="3.67418">
        <ele>942.8</ele>
        <time>2022-08-09T10:22:26Z</time>
      </trkpt>
      <trkpt lat="44.37823" lon="3.67418">
        <ele>942</ele>
        <time>2022-08-09T10:22:28Z</time>
      </trkpt>
      <trkpt lat="44.37824" lon="3.67418">
        <ele>940.6</ele>
        <time>2022-08-09T10:22:32Z</time>
      </trkpt>
      <trkpt lat="44.37827" lon="3.67418">
        <ele>939.6</ele>
        <time>2022-08-09T10:22:36Z</time>
      </trkpt>
      <trkpt lat="44.3783" lon="3.6742">
        <ele>938.4</ele>
        <time>2022-08-09T10:22:43Z</time>
      </trkpt>
      <trkpt lat="44.37831" lon="3.67422">
        <ele>937.4</ele>
        <time>2022-08-09T10:22:48Z</time>
      </trkpt>
      <trkpt lat="44.37832" lon="3.67423">
        <ele>936.2</ele>
        <time>2022-08-09T10:22:51Z</time>
      </trkpt>
      <trkpt lat="44.37833" lon="3.67426">
        <ele>935.2</ele>
        <time>2022-08-09T10:22:57Z</time>
      </trkpt>
      <trkpt lat="44.37835" lon="3.67427">
        <ele>935.2</ele>
        <time>2022-08-09T10:22:59Z</time>
      </trkpt>
      <trkpt lat="44.37839" lon="3.67429">
        <ele>934</ele>
        <time>2022-08-09T10:23:06Z</time>
      </trkpt>
      <trkpt lat="44.3784" lon="3.6743">
        <ele>933.4</ele>
        <time>2022-08-09T10:23:09Z</time>
      </trkpt>
      <trkpt lat="44.37841" lon="3.67431">
        <ele>932.8</ele>
        <time>2022-08-09T10:23:12Z</time>
      </trkpt>
      <trkpt lat="44.37843" lon="3.67434">
        <ele>931.6</ele>
        <time>2022-08-09T10:23:18Z</time>
      </trkpt>
      <trkpt lat="44.37846" lon="3.67437">
        <ele>930.4</ele>
        <time>2022-08-09T10:23:24Z</time>
      </trkpt>
      <trkpt lat="44.37849" lon="3.67441">
        <ele>929.4</ele>
        <time>2022-08-09T10:23:32Z</time>
      </trkpt>
      <trkpt lat="44.37852" lon="3.67442">
        <ele>929.2</ele>
        <time>2022-08-09T10:23:38Z</time>
      </trkpt>
      <trkpt lat="44.37853" lon="3.67444">
        <ele>928.4</ele>
        <time>2022-08-09T10:23:43Z</time>
      </trkpt>
      <trkpt lat="44.37856" lon="3.67446">
        <ele>927.4</ele>
        <time>2022-08-09T10:23:50Z</time>
      </trkpt>
      <trkpt lat="44.37858" lon="3.67445">
        <ele>927.2</ele>
        <time>2022-08-09T10:23:53Z</time>
      </trkpt>
      <trkpt lat="44.37863" lon="3.67441">
        <ele>926.4</ele>
        <time>2022-08-09T10:24:01Z</time>
      </trkpt>
      <trkpt lat="44.37865" lon="3.6744">
        <ele>925.2</ele>
        <time>2022-08-09T10:24:06Z</time>
      </trkpt>
      <trkpt lat="44.37867" lon="3.67441">
        <ele>924</ele>
        <time>2022-08-09T10:24:09Z</time>
      </trkpt>
      <trkpt lat="44.3787" lon="3.67442">
        <ele>923</ele>
        <time>2022-08-09T10:24:16Z</time>
      </trkpt>
      <trkpt lat="44.37873" lon="3.67441">
        <ele>922</ele>
        <time>2022-08-09T10:24:20Z</time>
      </trkpt>
      <trkpt lat="44.37874" lon="3.67441">
        <ele>922</ele>
        <time>2022-08-09T10:24:21Z</time>
      </trkpt>
      <trkpt lat="44.37879" lon="3.67437">
        <ele>920.8</ele>
        <time>2022-08-09T10:24:35Z</time>
      </trkpt>
      <trkpt lat="44.37879" lon="3.67436">
        <ele>920.4</ele>
        <time>2022-08-09T10:24:37Z</time>
      </trkpt>
      <trkpt lat="44.37881" lon="3.67435">
        <ele>919.6</ele>
        <time>2022-08-09T10:24:43Z</time>
      </trkpt>
      <trkpt lat="44.37883" lon="3.67434">
        <ele>918.6</ele>
        <time>2022-08-09T10:24:47Z</time>
      </trkpt>
      <trkpt lat="44.37884" lon="3.67432">
        <ele>918</ele>
        <time>2022-08-09T10:24:51Z</time>
      </trkpt>
      <trkpt lat="44.37888" lon="3.67429">
        <ele>918.4</ele>
        <time>2022-08-09T10:25:04Z</time>
      </trkpt>
      <trkpt lat="44.37887" lon="3.67427">
        <ele>918.2</ele>
        <time>2022-08-09T10:25:07Z</time>
      </trkpt>
      <trkpt lat="44.37887" lon="3.67427">
        <ele>917.8</ele>
        <time>2022-08-09T10:25:22Z</time>
      </trkpt>
      <trkpt lat="44.37885" lon="3.67428">
        <ele>917.4</ele>
        <time>2022-08-09T10:25:34Z</time>
      </trkpt>
      <trkpt lat="44.37885" lon="3.67427">
        <ele>917.6</ele>
        <time>2022-08-09T10:25:37Z</time>
      </trkpt>
      <trkpt lat="44.37881" lon="3.67425">
        <ele>918.4</ele>
        <time>2022-08-09T10:25:47Z</time>
      </trkpt>
      <trkpt lat="44.37881" lon="3.67424">
        <ele>918.6</ele>
        <time>2022-08-09T10:25:52Z</time>
      </trkpt>
      <trkpt lat="44.37879" lon="3.67422">
        <ele>917.4</ele>
        <time>2022-08-09T10:26:06Z</time>
      </trkpt>
      <trkpt lat="44.3788" lon="3.67422">
        <ele>916.8</ele>
        <time>2022-08-09T10:26:11Z</time>
      </trkpt>
      <trkpt lat="44.37883" lon="3.67422">
        <ele>916.2</ele>
        <time>2022-08-09T10:26:18Z</time>
      </trkpt>
      <trkpt lat="44.37882" lon="3.67425">
        <ele>916.6</ele>
        <time>2022-08-09T10:26:25Z</time>
      </trkpt>
      <trkpt lat="44.37887" lon="3.67429">
        <ele>916.2</ele>
        <time>2022-08-09T10:26:40Z</time>
      </trkpt>
      <trkpt lat="44.37886" lon="3.67425">
        <ele>917.8</ele>
        <time>2022-08-09T10:26:45Z</time>
      </trkpt>
      <trkpt lat="44.37884" lon="3.67426">
        <ele>918.8</ele>
        <time>2022-08-09T10:26:57Z</time>
      </trkpt>
      <trkpt lat="44.37883" lon="3.67426">
        <ele>919</ele>
        <time>2022-08-09T10:27:11Z</time>
      </trkpt>
      <trkpt lat="44.37883" lon="3.67425">
        <ele>919</ele>
        <time>2022-08-09T10:27:12Z</time>
      </trkpt>
      <trkpt lat="44.3788" lon="3.67424">
        <ele>918.2</ele>
        <time>2022-08-09T10:27:26Z</time>
      </trkpt>
      <trkpt lat="44.37879" lon="3.67427">
        <ele>918</ele>
        <time>2022-08-09T10:27:31Z</time>
      </trkpt>
      <trkpt lat="44.37875" lon="3.67423">
        <ele>917.2</ele>
        <time>2022-08-09T10:27:41Z</time>
      </trkpt>
      <trkpt lat="44.37875" lon="3.67423">
        <ele>918</ele>
        <time>2022-08-09T10:27:45Z</time>
      </trkpt>
      <trkpt lat="44.37872" lon="3.67422">
        <ele>918.4</ele>
        <time>2022-08-09T10:27:56Z</time>
      </trkpt>
      <trkpt lat="44.37872" lon="3.67415">
        <ele>919</ele>
        <time>2022-08-09T10:28:14Z</time>
      </trkpt>
      <trkpt lat="44.37871" lon="3.67415">
        <ele>919.2</ele>
        <time>2022-08-09T10:28:16Z</time>
      </trkpt>
      <trkpt lat="44.37869" lon="3.67416">
        <ele>919.6</ele>
        <time>2022-08-09T10:28:21Z</time>
      </trkpt>
      <trkpt lat="44.37868" lon="3.67417">
        <ele>920</ele>
        <time>2022-08-09T10:28:23Z</time>
      </trkpt>
      <trkpt lat="44.37866" lon="3.67418">
        <ele>921</ele>
        <time>2022-08-09T10:28:30Z</time>
      </trkpt>
      <trkpt lat="44.37866" lon="3.6742">
        <ele>921</ele>
        <time>2022-08-09T10:28:32Z</time>
      </trkpt>
      <trkpt lat="44.37858" lon="3.67424">
        <ele>922.2</ele>
        <time>2022-08-09T10:28:44Z</time>
      </trkpt>
      <trkpt lat="44.37858" lon="3.67423">
        <ele>922.4</ele>
        <time>2022-08-09T10:28:45Z</time>
      </trkpt>
      <trkpt lat="44.37857" lon="3.67423">
        <ele>922.4</ele>
        <time>2022-08-09T10:28:46Z</time>
      </trkpt>
      <trkpt lat="44.37857" lon="3.67423">
        <ele>923</ele>
        <time>2022-08-09T10:28:48Z</time>
      </trkpt>
      <trkpt lat="44.37856" lon="3.67423">
        <ele>923.2</ele>
        <time>2022-08-09T10:28:49Z</time>
      </trkpt>
      <trkpt lat="44.37857" lon="3.67422">
        <ele>923.4</ele>
        <time>2022-08-09T10:28:50Z</time>
      </trkpt>
      <trkpt lat="44.37857" lon="3.67422">
        <ele>923.8</ele>
        <time>2022-08-09T10:28:52Z</time>
      </trkpt>
      <trkpt lat="44.37856" lon="3.67422">
        <ele>924.2</ele>
        <time>2022-08-09T10:28:55Z</time>
      </trkpt>
      <trkpt lat="44.37855" lon="3.67421">
        <ele>924.8</ele>
        <time>2022-08-09T10:28:58Z</time>
      </trkpt>
      <trkpt lat="44.37854" lon="3.67423">
        <ele>925.2</ele>
        <time>2022-08-09T10:29:00Z</time>
      </trkpt>
      <trkpt lat="44.37853" lon="3.67424">
        <ele>925.4</ele>
        <time>2022-08-09T10:29:01Z</time>
      </trkpt>
      <trkpt lat="44.37852" lon="3.67426">
        <ele>925.8</ele>
        <time>2022-08-09T10:29:04Z</time>
      </trkpt>
      <trkpt lat="44.37851" lon="3.67432">
        <ele>926.6</ele>
        <time>2022-08-09T10:29:10Z</time>
      </trkpt>
      <trkpt lat="44.37851" lon="3.67432">
        <ele>926.8</ele>
        <time>2022-08-09T10:29:11Z</time>
      </trkpt>
      <trkpt lat="44.37851" lon="3.67433">
        <ele>927</ele>
        <time>2022-08-09T10:29:12Z</time>
      </trkpt>
      <trkpt lat="44.37851" lon="3.67436">
        <ele>927.8</ele>
        <time>2022-08-09T10:29:16Z</time>
      </trkpt>
      <trkpt lat="44.3785" lon="3.67434">
        <ele>928.8</ele>
        <time>2022-08-09T10:29:26Z</time>
      </trkpt>
      <trkpt lat="44.3785" lon="3.67435">
        <ele>929</ele>
        <time>2022-08-09T10:29:27Z</time>
      </trkpt>
      <trkpt lat="44.37848" lon="3.67432">
        <ele>930.2</ele>
        <time>2022-08-09T10:29:34Z</time>
      </trkpt>
      <trkpt lat="44.37847" lon="3.67432">
        <ele>930.8</ele>
        <time>2022-08-09T10:29:42Z</time>
      </trkpt>
      <trkpt lat="44.37847" lon="3.67436">
        <ele>930.8</ele>
        <time>2022-08-09T10:29:58Z</time>
      </trkpt>
      <trkpt lat="44.37843" lon="3.67427">
        <ele>931.4</ele>
        <time>2022-08-09T10:30:04Z</time>
      </trkpt>
      <trkpt lat="44.37843" lon="3.67426">
        <ele>932.4</ele>
        <time>2022-08-09T10:30:08Z</time>
      </trkpt>
      <trkpt lat="44.37843" lon="3.67426">
        <ele>932.4</ele>
        <time>2022-08-09T10:30:10Z</time>
      </trkpt>
      <trkpt lat="44.37844" lon="3.67428">
        <ele>932</ele>
        <time>2022-08-09T10:30:25Z</time>
      </trkpt>
      <trkpt lat="44.37842" lon="3.67427">
        <ele>932.6</ele>
        <time>2022-08-09T10:30:31Z</time>
      </trkpt>
      <trkpt lat="44.37839" lon="3.67427">
        <ele>933.4</ele>
        <time>2022-08-09T10:30:37Z</time>
      </trkpt>
      <trkpt lat="44.37839" lon="3.67427">
        <ele>933.8</ele>
        <time>2022-08-09T10:30:38Z</time>
      </trkpt>
      <trkpt lat="44.37837" lon="3.67427">
        <ele>934.4</ele>
        <time>2022-08-09T10:30:41Z</time>
      </trkpt>
      <trkpt lat="44.37837" lon="3.67426">
        <ele>935</ele>
        <time>2022-08-09T10:30:43Z</time>
      </trkpt>
      <trkpt lat="44.37835" lon="3.67424">
        <ele>936</ele>
        <time>2022-08-09T10:30:51Z</time>
      </trkpt>
      <trkpt lat="44.37834" lon="3.67425">
        <ele>936.4</ele>
        <time>2022-08-09T10:30:52Z</time>
      </trkpt>
      <trkpt lat="44.37832" lon="3.67424">
        <ele>937.2</ele>
        <time>2022-08-09T10:30:56Z</time>
      </trkpt>
      <trkpt lat="44.37829" lon="3.67421">
        <ele>938.2</ele>
        <time>2022-08-09T10:31:01Z</time>
      </trkpt>
      <trkpt lat="44.37826" lon="3.67421">
        <ele>939.2</ele>
        <time>2022-08-09T10:31:05Z</time>
      </trkpt>
      <trkpt lat="44.37823" lon="3.67423">
        <ele>940.2</ele>
        <time>2022-08-09T10:31:11Z</time>
      </trkpt>
      <trkpt lat="44.37821" lon="3.67422">
        <ele>941.4</ele>
        <time>2022-08-09T10:31:16Z</time>
      </trkpt>
      <trkpt lat="44.37819" lon="3.67424">
        <ele>942.2</ele>
        <time>2022-08-09T10:31:21Z</time>
      </trkpt>
      <trkpt lat="44.37818" lon="3.67424">
        <ele>942.6</ele>
        <time>2022-08-09T10:31:22Z</time>
      </trkpt>
      <trkpt lat="44.3781" lon="3.67423">
        <ele>943.8</ele>
        <time>2022-08-09T10:31:33Z</time>
      </trkpt>
      <trkpt lat="44.37807" lon="3.67422">
        <ele>944.8</ele>
        <time>2022-08-09T10:31:39Z</time>
      </trkpt>
      <trkpt lat="44.37805" lon="3.67423">
        <ele>945.8</ele>
        <time>2022-08-09T10:31:46Z</time>
      </trkpt>
      <trkpt lat="44.37802" lon="3.67424">
        <ele>946.8</ele>
        <time>2022-08-09T10:31:56Z</time>
      </trkpt>
      <trkpt lat="44.37802" lon="3.67425">
        <ele>947.2</ele>
        <time>2022-08-09T10:31:59Z</time>
      </trkpt>
      <trkpt lat="44.37801" lon="3.67428">
        <ele>948</ele>
        <time>2022-08-09T10:32:04Z</time>
      </trkpt>
      <trkpt lat="44.37799" lon="3.6743">
        <ele>949</ele>
        <time>2022-08-09T10:32:09Z</time>
      </trkpt>
      <trkpt lat="44.37797" lon="3.67432">
        <ele>949.6</ele>
        <time>2022-08-09T10:32:12Z</time>
      </trkpt>
      <trkpt lat="44.37796" lon="3.67435">
        <ele>950</ele>
        <time>2022-08-09T10:32:15Z</time>
      </trkpt>
      <trkpt lat="44.37795" lon="3.67436">
        <ele>950.2</ele>
        <time>2022-08-09T10:32:17Z</time>
      </trkpt>
      <trkpt lat="44.37795" lon="3.67437">
        <ele>950.4</ele>
        <time>2022-08-09T10:32:19Z</time>
      </trkpt>
      <trkpt lat="44.37798" lon="3.67437">
        <ele>951</ele>
        <time>2022-08-09T10:32:24Z</time>
      </trkpt>
      <trkpt lat="44.37806" lon="3.67438">
        <ele>951.6</ele>
        <time>2022-08-09T10:32:36Z</time>
      </trkpt>
      <trkpt lat="44.3781" lon="3.67443">
        <ele>952</ele>
        <time>2022-08-09T10:32:43Z</time>
      </trkpt>
      <trkpt lat="44.37811" lon="3.67443">
        <ele>952.2</ele>
        <time>2022-08-09T10:32:45Z</time>
      </trkpt>
      <trkpt lat="44.37811" lon="3.67443">
        <ele>952.2</ele>
        <time>2022-08-09T10:32:46Z</time>
      </trkpt>
      <trkpt lat="44.37818" lon="3.67451">
        <ele>951.6</ele>
        <time>2022-08-09T10:32:57Z</time>
      </trkpt>
      <trkpt lat="44.37819" lon="3.67452">
        <ele>951.6</ele>
        <time>2022-08-09T10:32:58Z</time>
      </trkpt>
      <trkpt lat="44.3782" lon="3.67464">
        <ele>952.4</ele>
        <time>2022-08-09T10:33:10Z</time>
      </trkpt>
      <trkpt lat="44.3782" lon="3.67465">
        <ele>952.4</ele>
        <time>2022-08-09T10:33:11Z</time>
      </trkpt>
      <trkpt lat="44.3782" lon="3.67471">
        <ele>953.2</ele>
        <time>2022-08-09T10:33:17Z</time>
      </trkpt>
      <trkpt lat="44.37823" lon="3.67476">
        <ele>953.4</ele>
        <time>2022-08-09T10:33:25Z</time>
      </trkpt>
      <trkpt lat="44.37834" lon="3.67481">
        <ele>954</ele>
        <time>2022-08-09T10:33:39Z</time>
      </trkpt>
      <trkpt lat="44.37836" lon="3.67483">
        <ele>954.2</ele>
        <time>2022-08-09T10:33:41Z</time>
      </trkpt>
      <trkpt lat="44.37837" lon="3.67484">
        <ele>954.2</ele>
        <time>2022-08-09T10:33:43Z</time>
      </trkpt>
      <trkpt lat="44.37838" lon="3.67486">
        <ele>954.2</ele>
        <time>2022-08-09T10:33:45Z</time>
      </trkpt>
      <trkpt lat="44.37839" lon="3.67487">
        <ele>954.4</ele>
        <time>2022-08-09T10:33:47Z</time>
      </trkpt>
      <trkpt lat="44.37841" lon="3.67489">
        <ele>954.8</ele>
        <time>2022-08-09T10:33:50Z</time>
      </trkpt>
      <trkpt lat="44.37843" lon="3.67489">
        <ele>955.2</ele>
        <time>2022-08-09T10:33:52Z</time>
      </trkpt>
      <trkpt lat="44.37844" lon="3.6749">
        <ele>955.4</ele>
        <time>2022-08-09T10:33:53Z</time>
      </trkpt>
      <trkpt lat="44.37845" lon="3.67491">
        <ele>955.4</ele>
        <time>2022-08-09T10:33:54Z</time>
      </trkpt>
      <trkpt lat="44.37846" lon="3.67492">
        <ele>955.4</ele>
        <time>2022-08-09T10:33:55Z</time>
      </trkpt>
      <trkpt lat="44.37858" lon="3.675">
        <ele>955.8</ele>
        <time>2022-08-09T10:34:06Z</time>
      </trkpt>
      <trkpt lat="44.37868" lon="3.6751">
        <ele>956.2</ele>
        <time>2022-08-09T10:34:20Z</time>
      </trkpt>
      <trkpt lat="44.37875" lon="3.67517">
        <ele>957.2</ele>
        <time>2022-08-09T10:34:31Z</time>
      </trkpt>
      <trkpt lat="44.37879" lon="3.67522">
        <ele>958</ele>
        <time>2022-08-09T10:34:37Z</time>
      </trkpt>
      <trkpt lat="44.37894" lon="3.6753">
        <ele>957.4</ele>
        <time>2022-08-09T10:34:53Z</time>
      </trkpt>
      <trkpt lat="44.379" lon="3.6753">
        <ele>958.4</ele>
        <time>2022-08-09T10:35:01Z</time>
      </trkpt>
      <trkpt lat="44.37903" lon="3.67527">
        <ele>958.4</ele>
        <time>2022-08-09T10:35:05Z</time>
      </trkpt>
      <trkpt lat="44.37915" lon="3.67525">
        <ele>958.8</ele>
        <time>2022-08-09T10:35:19Z</time>
      </trkpt>
      <trkpt lat="44.37919" lon="3.67525">
        <ele>959.4</ele>
        <time>2022-08-09T10:35:25Z</time>
      </trkpt>
      <trkpt lat="44.37924" lon="3.67527">
        <ele>960.6</ele>
        <time>2022-08-09T10:35:31Z</time>
      </trkpt>
      <trkpt lat="44.37927" lon="3.67528">
        <ele>961</ele>
        <time>2022-08-09T10:35:33Z</time>
      </trkpt>
      <trkpt lat="44.37928" lon="3.67529">
        <ele>961</ele>
        <time>2022-08-09T10:35:34Z</time>
      </trkpt>
      <trkpt lat="44.37931" lon="3.67529">
        <ele>961.6</ele>
        <time>2022-08-09T10:35:37Z</time>
      </trkpt>
      <trkpt lat="44.37936" lon="3.67525">
        <ele>962.6</ele>
        <time>2022-08-09T10:35:44Z</time>
      </trkpt>
      <trkpt lat="44.37937" lon="3.67524">
        <ele>962.8</ele>
        <time>2022-08-09T10:35:45Z</time>
      </trkpt>
      <trkpt lat="44.37938" lon="3.67524">
        <ele>963.2</ele>
        <time>2022-08-09T10:35:47Z</time>
      </trkpt>
      <trkpt lat="44.3794" lon="3.67523">
        <ele>964</ele>
        <time>2022-08-09T10:35:51Z</time>
      </trkpt>
      <trkpt lat="44.37943" lon="3.67517">
        <ele>965</ele>
        <time>2022-08-09T10:35:57Z</time>
      </trkpt>
      <trkpt lat="44.37944" lon="3.67514">
        <ele>965.6</ele>
        <time>2022-08-09T10:36:00Z</time>
      </trkpt>
      <trkpt lat="44.37944" lon="3.67512">
        <ele>966.2</ele>
        <time>2022-08-09T10:36:02Z</time>
      </trkpt>
      <trkpt lat="44.37946" lon="3.67511">
        <ele>968</ele>
        <time>2022-08-09T10:36:07Z</time>
      </trkpt>
      <trkpt lat="44.37948" lon="3.67511">
        <ele>968.2</ele>
        <time>2022-08-09T10:36:10Z</time>
      </trkpt>
      <trkpt lat="44.37952" lon="3.6751">
        <ele>969.2</ele>
        <time>2022-08-09T10:36:20Z</time>
      </trkpt>
      <trkpt lat="44.37953" lon="3.6751">
        <ele>969.4</ele>
        <time>2022-08-09T10:36:21Z</time>
      </trkpt>
      <trkpt lat="44.37955" lon="3.67509">
        <ele>970.2</ele>
        <time>2022-08-09T10:36:25Z</time>
      </trkpt>
      <trkpt lat="44.37956" lon="3.67509">
        <ele>970.8</ele>
        <time>2022-08-09T10:36:27Z</time>
      </trkpt>
      <trkpt lat="44.37958" lon="3.67508">
        <ele>971.6</ele>
        <time>2022-08-09T10:36:30Z</time>
      </trkpt>
      <trkpt lat="44.37962" lon="3.67505">
        <ele>972.4</ele>
        <time>2022-08-09T10:36:36Z</time>
      </trkpt>
      <trkpt lat="44.37963" lon="3.67505">
        <ele>972.6</ele>
        <time>2022-08-09T10:36:38Z</time>
      </trkpt>
      <trkpt lat="44.37963" lon="3.67505">
        <ele>973.2</ele>
        <time>2022-08-09T10:36:48Z</time>
      </trkpt>
      <trkpt lat="44.3796" lon="3.67503">
        <ele>973.6</ele>
        <time>2022-08-09T10:36:58Z</time>
      </trkpt>
      <trkpt lat="44.37959" lon="3.67503">
        <ele>973.6</ele>
        <time>2022-08-09T10:37:00Z</time>
      </trkpt>
      <trkpt lat="44.37965" lon="3.67502">
        <ele>973.6</ele>
        <time>2022-08-09T10:37:10Z</time>
      </trkpt>
      <trkpt lat="44.3797" lon="3.67504">
        <ele>974.4</ele>
        <time>2022-08-09T10:37:16Z</time>
      </trkpt>
      <trkpt lat="44.37973" lon="3.67507">
        <ele>974.8</ele>
        <time>2022-08-09T10:37:21Z</time>
      </trkpt>
      <trkpt lat="44.37974" lon="3.67508">
        <ele>975</ele>
        <time>2022-08-09T10:37:22Z</time>
      </trkpt>
      <trkpt lat="44.37975" lon="3.67515">
        <ele>975.8</ele>
        <time>2022-08-09T10:37:29Z</time>
      </trkpt>
      <trkpt lat="44.37975" lon="3.67516">
        <ele>975.8</ele>
        <time>2022-08-09T10:37:30Z</time>
      </trkpt>
      <trkpt lat="44.37977" lon="3.67516">
        <ele>976.4</ele>
        <time>2022-08-09T10:37:33Z</time>
      </trkpt>
      <trkpt lat="44.37979" lon="3.67517">
        <ele>977</ele>
        <time>2022-08-09T10:37:37Z</time>
      </trkpt>
      <trkpt lat="44.3798" lon="3.67517">
        <ele>978</ele>
        <time>2022-08-09T10:37:41Z</time>
      </trkpt>
      <trkpt lat="44.37982" lon="3.67519">
        <ele>979</ele>
        <time>2022-08-09T10:37:46Z</time>
      </trkpt>
      <trkpt lat="44.37983" lon="3.67519">
        <ele>979</ele>
        <time>2022-08-09T10:37:47Z</time>
      </trkpt>
      <trkpt lat="44.37984" lon="3.6752">
        <ele>979.2</ele>
        <time>2022-08-09T10:37:49Z</time>
      </trkpt>
      <trkpt lat="44.37986" lon="3.67521">
        <ele>979.6</ele>
        <time>2022-08-09T10:37:51Z</time>
      </trkpt>
      <trkpt lat="44.37988" lon="3.67523">
        <ele>980.2</ele>
        <time>2022-08-09T10:37:57Z</time>
      </trkpt>
      <trkpt lat="44.37989" lon="3.67523">
        <ele>980.2</ele>
        <time>2022-08-09T10:37:58Z</time>
      </trkpt>
      <trkpt lat="44.37992" lon="3.67525">
        <ele>981.2</ele>
        <time>2022-08-09T10:38:05Z</time>
      </trkpt>
      <trkpt lat="44.37994" lon="3.67527">
        <ele>982.2</ele>
        <time>2022-08-09T10:38:10Z</time>
      </trkpt>
      <trkpt lat="44.37999" lon="3.6753">
        <ele>983.4</ele>
        <time>2022-08-09T10:38:17Z</time>
      </trkpt>
      <trkpt lat="44.38" lon="3.67531">
        <ele>981.6</ele>
        <time>2022-08-09T10:38:19Z</time>
      </trkpt>
      <trkpt lat="44.38003" lon="3.67533">
        <ele>981.6</ele>
        <time>2022-08-09T10:38:22Z</time>
      </trkpt>
      <trkpt lat="44.38007" lon="3.67535">
        <ele>982.8</ele>
        <time>2022-08-09T10:38:29Z</time>
      </trkpt>
      <trkpt lat="44.38012" lon="3.67537">
        <ele>983.4</ele>
        <time>2022-08-09T10:38:35Z</time>
      </trkpt>
      <trkpt lat="44.38017" lon="3.67539">
        <ele>983.8</ele>
        <time>2022-08-09T10:38:41Z</time>
      </trkpt>
      <trkpt lat="44.38021" lon="3.67541">
        <ele>984.4</ele>
        <time>2022-08-09T10:38:47Z</time>
      </trkpt>
      <trkpt lat="44.38023" lon="3.67542">
        <ele>985</ele>
        <time>2022-08-09T10:38:50Z</time>
      </trkpt>
      <trkpt lat="44.38025" lon="3.67545">
        <ele>986</ele>
        <time>2022-08-09T10:38:56Z</time>
      </trkpt>
      <trkpt lat="44.38027" lon="3.67548">
        <ele>986</ele>
        <time>2022-08-09T10:39:00Z</time>
      </trkpt>
      <trkpt lat="44.38027" lon="3.67546">
        <ele>986</ele>
        <time>2022-08-09T10:39:11Z</time>
      </trkpt>
      <trkpt lat="44.38029" lon="3.67546">
        <ele>986.8</ele>
        <time>2022-08-09T10:39:26Z</time>
      </trkpt>
      <trkpt lat="44.3803" lon="3.67547">
        <ele>986.2</ele>
        <time>2022-08-09T10:39:42Z</time>
      </trkpt>
      <trkpt lat="44.38031" lon="3.67548">
        <ele>986.2</ele>
        <time>2022-08-09T10:39:56Z</time>
      </trkpt>
      <trkpt lat="44.38036" lon="3.67555">
        <ele>987</ele>
        <time>2022-08-09T10:40:08Z</time>
      </trkpt>
      <trkpt lat="44.38037" lon="3.67556">
        <ele>987</ele>
        <time>2022-08-09T10:40:09Z</time>
      </trkpt>
      <trkpt lat="44.38038" lon="3.67557">
        <ele>987.2</ele>
        <time>2022-08-09T10:40:10Z</time>
      </trkpt>
      <trkpt lat="44.38041" lon="3.67559">
        <ele>987.4</ele>
        <time>2022-08-09T10:40:13Z</time>
      </trkpt>
      <trkpt lat="44.38044" lon="3.67561">
        <ele>988</ele>
        <time>2022-08-09T10:40:19Z</time>
      </trkpt>
      <trkpt lat="44.38044" lon="3.67561">
        <ele>988.2</ele>
        <time>2022-08-09T10:40:20Z</time>
      </trkpt>
      <trkpt lat="44.38049" lon="3.67563">
        <ele>989.2</ele>
        <time>2022-08-09T10:40:32Z</time>
      </trkpt>
      <trkpt lat="44.38055" lon="3.67566">
        <ele>990.2</ele>
        <time>2022-08-09T10:40:44Z</time>
      </trkpt>
      <trkpt lat="44.38057" lon="3.67565">
        <ele>990.4</ele>
        <time>2022-08-09T10:40:46Z</time>
      </trkpt>
      <trkpt lat="44.38059" lon="3.67565">
        <ele>990.6</ele>
        <time>2022-08-09T10:40:48Z</time>
      </trkpt>
      <trkpt lat="44.38063" lon="3.67566">
        <ele>990.6</ele>
        <time>2022-08-09T10:40:52Z</time>
      </trkpt>
      <trkpt lat="44.38068" lon="3.67567">
        <ele>990.4</ele>
        <time>2022-08-09T10:41:00Z</time>
      </trkpt>
      <trkpt lat="44.38081" lon="3.67576">
        <ele>990.8</ele>
        <time>2022-08-09T10:41:14Z</time>
      </trkpt>
      <trkpt lat="44.38094" lon="3.67585">
        <ele>990.6</ele>
        <time>2022-08-09T10:41:29Z</time>
      </trkpt>
      <trkpt lat="44.38103" lon="3.67596">
        <ele>990.4</ele>
        <time>2022-08-09T10:41:42Z</time>
      </trkpt>
      <trkpt lat="44.38106" lon="3.67608">
        <ele>990.4</ele>
        <time>2022-08-09T10:41:54Z</time>
      </trkpt>
      <trkpt lat="44.38107" lon="3.6761">
        <ele>990.4</ele>
        <time>2022-08-09T10:41:56Z</time>
      </trkpt>
      <trkpt lat="44.38106" lon="3.67612">
        <ele>990.6</ele>
        <time>2022-08-09T10:41:58Z</time>
      </trkpt>
      <trkpt lat="44.38106" lon="3.67614">
        <ele>990.8</ele>
        <time>2022-08-09T10:42:00Z</time>
      </trkpt>
      <trkpt lat="44.38104" lon="3.67617">
        <ele>990.8</ele>
        <time>2022-08-09T10:42:03Z</time>
      </trkpt>
      <trkpt lat="44.38103" lon="3.67625">
        <ele>991.2</ele>
        <time>2022-08-09T10:42:10Z</time>
      </trkpt>
      <trkpt lat="44.38103" lon="3.67626">
        <ele>991.2</ele>
        <time>2022-08-09T10:42:11Z</time>
      </trkpt>
      <trkpt lat="44.38104" lon="3.67631">
        <ele>991.4</ele>
        <time>2022-08-09T10:42:14Z</time>
      </trkpt>
      <trkpt lat="44.38105" lon="3.67634">
        <ele>991.6</ele>
        <time>2022-08-09T10:42:17Z</time>
      </trkpt>
      <trkpt lat="44.38106" lon="3.6764">
        <ele>992</ele>
        <time>2022-08-09T10:42:22Z</time>
      </trkpt>
      <trkpt lat="44.38106" lon="3.67642">
        <ele>992.2</ele>
        <time>2022-08-09T10:42:23Z</time>
      </trkpt>
      <trkpt lat="44.38106" lon="3.67645">
        <ele>992.2</ele>
        <time>2022-08-09T10:42:25Z</time>
      </trkpt>
      <trkpt lat="44.38111" lon="3.6766">
        <ele>993.4</ele>
        <time>2022-08-09T10:42:37Z</time>
      </trkpt>
      <trkpt lat="44.38111" lon="3.67661">
        <ele>993.8</ele>
        <time>2022-08-09T10:42:39Z</time>
      </trkpt>
      <trkpt lat="44.38111" lon="3.67666">
        <ele>994.4</ele>
        <time>2022-08-09T10:42:43Z</time>
      </trkpt>
      <trkpt lat="44.3811" lon="3.67667">
        <ele>994.4</ele>
        <time>2022-08-09T10:42:44Z</time>
      </trkpt>
      <trkpt lat="44.38108" lon="3.6767">
        <ele>995</ele>
        <time>2022-08-09T10:42:48Z</time>
      </trkpt>
      <trkpt lat="44.38108" lon="3.67672">
        <ele>995</ele>
        <time>2022-08-09T10:42:49Z</time>
      </trkpt>
      <trkpt lat="44.38106" lon="3.67674">
        <ele>995.2</ele>
        <time>2022-08-09T10:42:52Z</time>
      </trkpt>
      <trkpt lat="44.38106" lon="3.67675">
        <ele>995.8</ele>
        <time>2022-08-09T10:42:56Z</time>
      </trkpt>
      <trkpt lat="44.38107" lon="3.67676">
        <ele>996</ele>
        <time>2022-08-09T10:42:59Z</time>
      </trkpt>
      <trkpt lat="44.38101" lon="3.6768">
        <ele>995.6</ele>
        <time>2022-08-09T10:43:10Z</time>
      </trkpt>
      <trkpt lat="44.381" lon="3.67683">
        <ele>995.8</ele>
        <time>2022-08-09T10:43:12Z</time>
      </trkpt>
      <trkpt lat="44.38095" lon="3.67693">
        <ele>996.8</ele>
        <time>2022-08-09T10:43:20Z</time>
      </trkpt>
      <trkpt lat="44.38094" lon="3.67696">
        <ele>997.2</ele>
        <time>2022-08-09T10:43:23Z</time>
      </trkpt>
      <trkpt lat="44.38093" lon="3.67702">
        <ele>997.8</ele>
        <time>2022-08-09T10:43:28Z</time>
      </trkpt>
      <trkpt lat="44.38091" lon="3.67707">
        <ele>998.8</ele>
        <time>2022-08-09T10:43:33Z</time>
      </trkpt>
      <trkpt lat="44.38089" lon="3.67708">
        <ele>999</ele>
        <time>2022-08-09T10:43:37Z</time>
      </trkpt>
      <trkpt lat="44.38088" lon="3.67702">
        <ele>999</ele>
        <time>2022-08-09T10:43:44Z</time>
      </trkpt>
      <trkpt lat="44.38088" lon="3.67699">
        <ele>999.2</ele>
        <time>2022-08-09T10:43:55Z</time>
      </trkpt>
      <trkpt lat="44.38086" lon="3.67701">
        <ele>999.2</ele>
        <time>2022-08-09T10:44:09Z</time>
      </trkpt>
      <trkpt lat="44.38087" lon="3.67705">
        <ele>998.4</ele>
        <time>2022-08-09T10:44:21Z</time>
      </trkpt>
      <trkpt lat="44.38088" lon="3.67706">
        <ele>998.4</ele>
        <time>2022-08-09T10:44:30Z</time>
      </trkpt>
      <trkpt lat="44.3809" lon="3.67707">
        <ele>998.4</ele>
        <time>2022-08-09T10:44:46Z</time>
      </trkpt>
      <trkpt lat="44.3809" lon="3.67708">
        <ele>998.4</ele>
        <time>2022-08-09T10:44:59Z</time>
      </trkpt>
      <trkpt lat="44.3809" lon="3.67708">
        <ele>998.2</ele>
        <time>2022-08-09T10:45:02Z</time>
      </trkpt>
      <trkpt lat="44.38091" lon="3.67708">
        <ele>998.4</ele>
        <time>2022-08-09T10:45:18Z</time>
      </trkpt>
      <trkpt lat="44.38089" lon="3.677">
        <ele>999</ele>
        <time>2022-08-09T10:45:30Z</time>
      </trkpt>
      <trkpt lat="44.38088" lon="3.67699">
        <ele>992.2</ele>
        <time>2022-08-09T10:45:34Z</time>
      </trkpt>
      <trkpt lat="44.38087" lon="3.67698">
        <ele>977.6</ele>
        <time>2022-08-09T10:45:35Z</time>
      </trkpt>
      <trkpt lat="44.38087" lon="3.67698">
        <ele>950</ele>
        <time>2022-08-09T10:45:36Z</time>
      </trkpt>
      <trkpt lat="44.38087" lon="3.67698">
        <ele>932.6</ele>
        <time>2022-08-09T10:45:37Z</time>
      </trkpt>
      <trkpt lat="44.38087" lon="3.67698">
        <ele>915.4</ele>
        <time>2022-08-09T10:45:38Z</time>
      </trkpt>
      <trkpt lat="44.38087" lon="3.67698">
        <ele>901.6</ele>
        <time>2022-08-09T10:45:39Z</time>
      </trkpt>
      <trkpt lat="44.38087" lon="3.67698">
        <ele>891.6</ele>
        <time>2022-08-09T10:45:40Z</time>
      </trkpt>
      <trkpt lat="44.38087" lon="3.67698">
        <ele>885</ele>
        <time>2022-08-09T10:45:41Z</time>
      </trkpt>
      <trkpt lat="44.38087" lon="3.67698">
        <ele>880.4</ele>
        <time>2022-08-09T10:45:42Z</time>
      </trkpt>
      <trkpt lat="44.38087" lon="3.67698">
        <ele>877.2</ele>
        <time>2022-08-09T10:45:43Z</time>
      </trkpt>
      <trkpt lat="44.38087" lon="3.67698">
        <ele>875.6</ele>
        <time>2022-08-09T10:45:44Z</time>
      </trkpt>
      <trkpt lat="44.38087" lon="3.67698">
        <ele>874.4</ele>
        <time>2022-08-09T10:45:45Z</time>
      </trkpt>
      <trkpt lat="44.38087" lon="3.67698">
        <ele>873.2</ele>
        <time>2022-08-09T10:45:46Z</time>
      </trkpt>
      <trkpt lat="44.38087" lon="3.67698">
        <ele>871.4</ele>
        <time>2022-08-09T10:45:47Z</time>
      </trkpt>
      <trkpt lat="44.38087" lon="3.67698">
        <ele>868.8</ele>
        <time>2022-08-09T10:45:48Z</time>
      </trkpt>
      <trkpt lat="44.38087" lon="3.67698">
        <ele>867.4</ele>
        <time>2022-08-09T10:45:49Z</time>
      </trkpt>
      <trkpt lat="44.38087" lon="3.67698">
        <ele>863.8</ele>
        <time>2022-08-09T10:45:56Z</time>
      </trkpt>
      <trkpt lat="44.38087" lon="3.67698">
        <ele>861.4</ele>
        <time>2022-08-09T10:45:57Z</time>
      </trkpt>
      <trkpt lat="44.38087" lon="3.67698">
        <ele>860</ele>
        <time>2022-08-09T10:45:58Z</time>
      </trkpt>
      <trkpt lat="44.38087" lon="3.67698">
        <ele>859</ele>
        <time>2022-08-09T10:46:00Z</time>
      </trkpt>
      <trkpt lat="44.38087" lon="3.67698">
        <ele>860.2</ele>
        <time>2022-08-09T10:46:01Z</time>
      </trkpt>
      <trkpt lat="44.38087" lon="3.67698">
        <ele>863.4</ele>
        <time>2022-08-09T10:46:02Z</time>
      </trkpt>
      <trkpt lat="44.38087" lon="3.67698">
        <ele>865.4</ele>
        <time>2022-08-09T10:46:03Z</time>
      </trkpt>
      <trkpt lat="44.38087" lon="3.67698">
        <ele>867.4</ele>
        <time>2022-08-09T10:46:04Z</time>
      </trkpt>
      <trkpt lat="44.38087" lon="3.67698">
        <ele>871.4</ele>
        <time>2022-08-09T10:46:05Z</time>
      </trkpt>
      <trkpt lat="44.38087" lon="3.67698">
        <ele>875</ele>
        <time>2022-08-09T10:46:06Z</time>
      </trkpt>
      <trkpt lat="44.38087" lon="3.67698">
        <ele>877</ele>
        <time>2022-08-09T10:46:07Z</time>
      </trkpt>
      <trkpt lat="44.38086" lon="3.67699">
        <ele>878.2</ele>
        <time>2022-08-09T10:46:08Z</time>
      </trkpt>
      <trkpt lat="44.38087" lon="3.677">
        <ele>880.4</ele>
        <time>2022-08-09T10:46:10Z</time>
      </trkpt>
      <trkpt lat="44.38086" lon="3.677">
        <ele>890.6</ele>
        <time>2022-08-09T10:46:11Z</time>
      </trkpt>
      <trkpt lat="44.38087" lon="3.677">
        <ele>948.2</ele>
        <time>2022-08-09T10:46:12Z</time>
      </trkpt>
      <trkpt lat="44.38087" lon="3.67699">
        <ele>977.8</ele>
        <time>2022-08-09T10:46:13Z</time>
      </trkpt>
      <trkpt lat="44.38087" lon="3.67699">
        <ele>993</ele>
        <time>2022-08-09T10:46:14Z</time>
      </trkpt>
      <trkpt lat="44.38087" lon="3.67699">
        <ele>1000.8</ele>
        <time>2022-08-09T10:46:15Z</time>
      </trkpt>
      <trkpt lat="44.38087" lon="3.67699">
        <ele>1004.8</ele>
        <time>2022-08-09T10:46:16Z</time>
      </trkpt>
      <trkpt lat="44.38087" lon="3.67699">
        <ele>1006.8</ele>
        <time>2022-08-09T10:46:17Z</time>
      </trkpt>
      <trkpt lat="44.38087" lon="3.67699">
        <ele>1007.8</ele>
        <time>2022-08-09T10:46:18Z</time>
      </trkpt>
      <trkpt lat="44.38087" lon="3.67698">
        <ele>1008.6</ele>
        <time>2022-08-09T10:46:20Z</time>
      </trkpt>
      <trkpt lat="44.38088" lon="3.677">
        <ele>1007.8</ele>
        <time>2022-08-09T10:46:30Z</time>
      </trkpt>
      <trkpt lat="44.38087" lon="3.677">
        <ele>1008</ele>
        <time>2022-08-09T10:46:44Z</time>
      </trkpt>
      <trkpt lat="44.38087" lon="3.67704">
        <ele>1008</ele>
        <time>2022-08-09T10:46:58Z</time>
      </trkpt>
      <trkpt lat="44.38087" lon="3.67708">
        <ele>1008.4</ele>
        <time>2022-08-09T10:47:10Z</time>
      </trkpt>
      <trkpt lat="44.38086" lon="3.67714">
        <ele>1008.4</ele>
        <time>2022-08-09T10:47:21Z</time>
      </trkpt>
      <trkpt lat="44.38087" lon="3.67717">
        <ele>1008.2</ele>
        <time>2022-08-09T10:47:23Z</time>
      </trkpt>
      <trkpt lat="44.38092" lon="3.67723">
        <ele>1007.8</ele>
        <time>2022-08-09T10:47:30Z</time>
      </trkpt>
      <trkpt lat="44.38093" lon="3.67724">
        <ele>1007.8</ele>
        <time>2022-08-09T10:47:31Z</time>
      </trkpt>
      <trkpt lat="44.38105" lon="3.67736">
        <ele>1007.4</ele>
        <time>2022-08-09T10:47:45Z</time>
      </trkpt>
      <trkpt lat="44.38114" lon="3.67739">
        <ele>1006.8</ele>
        <time>2022-08-09T10:47:54Z</time>
      </trkpt>
      <trkpt lat="44.38119" lon="3.67739">
        <ele>1006.8</ele>
        <time>2022-08-09T10:48:00Z</time>
      </trkpt>
      <trkpt lat="44.38126" lon="3.67731">
        <ele>1007</ele>
        <time>2022-08-09T10:48:10Z</time>
      </trkpt>
      <trkpt lat="44.38135" lon="3.67725">
        <ele>1006.8</ele>
        <time>2022-08-09T10:48:22Z</time>
      </trkpt>
      <trkpt lat="44.38137" lon="3.67723">
        <ele>1006.6</ele>
        <time>2022-08-09T10:48:24Z</time>
      </trkpt>
      <trkpt lat="44.38146" lon="3.67713">
        <ele>1006.8</ele>
        <time>2022-08-09T10:48:36Z</time>
      </trkpt>
      <trkpt lat="44.38162" lon="3.67701">
        <ele>1006.2</ele>
        <time>2022-08-09T10:48:54Z</time>
      </trkpt>
      <trkpt lat="44.38164" lon="3.67701">
        <ele>1006.2</ele>
        <time>2022-08-09T10:48:55Z</time>
      </trkpt>
      <trkpt lat="44.38177" lon="3.67691">
        <ele>1006.4</ele>
        <time>2022-08-09T10:49:10Z</time>
      </trkpt>
      <trkpt lat="44.3819" lon="3.67678">
        <ele>1006.2</ele>
        <time>2022-08-09T10:49:25Z</time>
      </trkpt>
      <trkpt lat="44.382" lon="3.67669">
        <ele>1006.2</ele>
        <time>2022-08-09T10:49:38Z</time>
      </trkpt>
      <trkpt lat="44.38201" lon="3.67669">
        <ele>1006.2</ele>
        <time>2022-08-09T10:49:39Z</time>
      </trkpt>
    </trkseg>
  </trk>
</gpx>